sensor_id;sensor_type;location;lat;lon;timestamp;pressure;altitude;pressure_sealevel;temperature;humidity
9525;BME280;15940;48.734;9.112;2023-03-12T00:02:10;96156.53;;;0.39;68.38
9525;BME280;15940;48.734;9.112;2023-03-12T00:04:37;96149.91;;;0.43;68.70
9525;BME280;15940;48.734;9.112;2023-03-12T00:07:04;96159.59;;;0.37;68.17
9525;BME280;15940;48.734;9.112;2023-03-12T00:09:35;96162.16;;;0.53;67.90
9525;BME280;15940;48.734;9.112;2023-03-12T00:12:02;96168.03;;;0.48;67.19
9525;BME280;15940;48.734;9.112;2023-03-12T00:14:29;96161.84;;;0.26;68.11
9525;BME280;15940;48.734;9.112;2023-03-12T00:16:57;96162.81;;;0.07;67.90
9525;BME280;15940;48.734;9.112;2023-03-12T00:19:23;96156.44;;;-0.09;68.57
9525;BME280;15940;48.734;9.112;2023-03-12T00:21:50;96157.03;;;-0.30;66.45
9525;BME280;15940;48.734;9.112;2023-03-12T00:24:17;96161.94;;;-0.29;70.35
9525;BME280;15940;48.734;9.112;2023-03-12T00:26:46;96157.59;;;-0.35;69.71
9525;BME280;15940;48.734;9.112;2023-03-12T00:29:12;96167.72;;;-0.17;69.54
9525;BME280;15940;48.734;9.112;2023-03-12T00:31:39;96160.88;;;-0.31;68.69
9525;BME280;15940;48.734;9.112;2023-03-12T00:34:06;96155.47;;;-0.27;70.31
9525;BME280;15940;48.734;9.112;2023-03-12T00:36:33;96158.75;;;-0.23;69.25
9525;BME280;15940;48.734;9.112;2023-03-12T00:39:01;96155.38;;;-0.11;69.73
9525;BME280;15940;48.734;9.112;2023-03-12T00:41:28;96157.91;;;-0.20;69.56
9525;BME280;15940;48.734;9.112;2023-03-12T00:43:57;96154.06;;;-0.19;69.17
9525;BME280;15940;48.734;9.112;2023-03-12T00:46:24;96153.88;;;-0.12;69.91
9525;BME280;15940;48.734;9.112;2023-03-12T00:48:51;96149.84;;;-0.04;68.10
9525;BME280;15940;48.734;9.112;2023-03-12T00:51:18;96146.94;;;-0.22;70.36
9525;BME280;15940;48.734;9.112;2023-03-12T00:53:45;96149.28;;;-0.37;68.87
9525;BME280;15940;48.734;9.112;2023-03-12T00:56:12;96148.63;;;-0.29;69.42
9525;BME280;15940;48.734;9.112;2023-03-12T00:58:39;96141.44;;;-0.15;69.90
9525;BME280;15940;48.734;9.112;2023-03-12T01:01:08;96144.41;;;0.12;69.56
9525;BME280;15940;48.734;9.112;2023-03-12T01:03:36;96143.97;;;-0.12;68.29
9525;BME280;15940;48.734;9.112;2023-03-12T01:06:04;96137.13;;;-0.51;68.42
9525;BME280;15940;48.734;9.112;2023-03-12T01:08:31;96154.66;;;-0.66;70.01
9525;BME280;15940;48.734;9.112;2023-03-12T01:10:58;96147.47;;;-0.82;69.86
9525;BME280;15940;48.734;9.112;2023-03-12T01:13:26;96156.41;;;-1.05;69.93
9525;BME280;15940;48.734;9.112;2023-03-12T01:15:53;96149.97;;;-1.04;71.09
9525;BME280;15940;48.734;9.112;2023-03-12T01:18:21;96142.22;;;-0.86;70.93
9525;BME280;15940;48.734;9.112;2023-03-12T01:20:48;96140.53;;;-0.92;70.57
9525;BME280;15940;48.734;9.112;2023-03-12T01:23:15;96148.66;;;-0.70;71.93
9525;BME280;15940;48.734;9.112;2023-03-12T01:25:42;96151.41;;;-0.32;71.69
9525;BME280;15940;48.734;9.112;2023-03-12T01:28:09;96138.41;;;-0.30;70.23
9525;BME280;15940;48.734;9.112;2023-03-12T01:30:36;96142.59;;;-0.04;71.08
9525;BME280;15940;48.734;9.112;2023-03-12T01:33:03;96144.41;;;-0.01;70.51
9525;BME280;15940;48.734;9.112;2023-03-12T01:35:35;96141.22;;;-0.08;69.47
9525;BME280;15940;48.734;9.112;2023-03-12T01:38:04;96145.47;;;-0.11;69.69
9525;BME280;15940;48.734;9.112;2023-03-12T01:40:33;96147.91;;;-0.04;69.50
9525;BME280;15940;48.734;9.112;2023-03-12T01:43:24;96148.22;;;-0.14;69.71
9525;BME280;15940;48.734;9.112;2023-03-12T01:46:26;96148.03;;;-0.07;70.16
9525;BME280;15940;48.734;9.112;2023-03-12T01:48:58;96149.22;;;-0.08;70.77
9525;BME280;15940;48.734;9.112;2023-03-12T01:51:33;96150.16;;;-0.02;68.88
9525;BME280;15940;48.734;9.112;2023-03-12T01:54:06;96147.28;;;0.18;69.72
9525;BME280;15940;48.734;9.112;2023-03-12T01:56:36;96148.03;;;0.06;69.27
9525;BME280;15940;48.734;9.112;2023-03-12T01:59:09;96145.81;;;-0.09;70.06
9525;BME280;15940;48.734;9.112;2023-03-12T02:01:38;96150.38;;;-0.09;68.58
9525;BME280;15940;48.734;9.112;2023-03-12T02:04:06;96151.75;;;-0.05;69.65
9525;BME280;15940;48.734;9.112;2023-03-12T02:06:40;96147.91;;;0.09;69.86
9525;BME280;15940;48.734;9.112;2023-03-12T02:09:09;96139.28;;;0.18;69.49
9525;BME280;15940;48.734;9.112;2023-03-12T02:11:37;96145.78;;;0.17;69.53
9525;BME280;15940;48.734;9.112;2023-03-12T02:14:04;96145.13;;;0.38;68.66
9525;BME280;15940;48.734;9.112;2023-03-12T02:16:31;96149.72;;;0.25;67.89
9525;BME280;15940;48.734;9.112;2023-03-12T02:19:00;96150.91;;;0.24;68.57
9525;BME280;15940;48.734;9.112;2023-03-12T02:21:30;96146.72;;;0.36;70.16
9525;BME280;15940;48.734;9.112;2023-03-12T02:24:06;96136.81;;;0.36;69.11
9525;BME280;15940;48.734;9.112;2023-03-12T02:26:37;96137.97;;;0.48;68.22
9525;BME280;15940;48.734;9.112;2023-03-12T02:29:06;96144.81;;;0.36;68.81
9525;BME280;15940;48.734;9.112;2023-03-12T02:31:39;96139.59;;;0.33;68.45
9525;BME280;15940;48.734;9.112;2023-03-12T02:34:08;96137.34;;;0.18;68.51
9525;BME280;15940;48.734;9.112;2023-03-12T02:36:35;96138.53;;;0.30;69.36
9525;BME280;15940;48.734;9.112;2023-03-12T02:39:03;96134.38;;;0.29;69.69
9525;BME280;15940;48.734;9.112;2023-03-12T02:41:33;96136.94;;;0.33;68.23
9525;BME280;15940;48.734;9.112;2023-03-12T02:44:06;96131.41;;;0.14;67.69
9525;BME280;15940;48.734;9.112;2023-03-12T02:46:39;96135.25;;;-0.12;68.67
9525;BME280;15940;48.734;9.112;2023-03-12T02:49:07;96139.41;;;0.02;69.32
9525;BME280;15940;48.734;9.112;2023-03-12T02:51:36;96142.59;;;-0.04;69.78
9525;BME280;15940;48.734;9.112;2023-03-12T02:54:04;96133.34;;;0.01;70.11
9525;BME280;15940;48.734;9.112;2023-03-12T02:56:31;96129.91;;;0.13;70.40
9525;BME280;15940;48.734;9.112;2023-03-12T02:58:58;96143.34;;;0.10;68.79
9525;BME280;15940;48.734;9.112;2023-03-12T03:01:27;96137.69;;;0.08;69.48
9525;BME280;15940;48.734;9.112;2023-03-12T03:03:54;96145.56;;;-0.02;69.05
9525;BME280;15940;48.734;9.112;2023-03-12T03:06:21;96140.38;;;-0.18;69.48
9525;BME280;15940;48.734;9.112;2023-03-12T03:08:48;96145.47;;;0.02;69.66
9525;BME280;15940;48.734;9.112;2023-03-12T03:11:15;96134.41;;;-0.09;70.21
9525;BME280;15940;48.734;9.112;2023-03-12T03:13:42;96136.94;;;-0.06;70.80
9525;BME280;15940;48.734;9.112;2023-03-12T03:16:09;96127.81;;;-0.17;71.45
9525;BME280;15940;48.734;9.112;2023-03-12T03:18:38;96125.66;;;0.03;70.09
9525;BME280;15940;48.734;9.112;2023-03-12T03:21:07;96122.69;;;0.01;70.13
9525;BME280;15940;48.734;9.112;2023-03-12T03:23:35;96114.59;;;-0.08;69.50
9525;BME280;15940;48.734;9.112;2023-03-12T03:26:03;96099.59;;;-0.27;69.52
9525;BME280;15940;48.734;9.112;2023-03-12T03:28:30;96100.09;;;-0.45;70.10
9525;BME280;15940;48.734;9.112;2023-03-12T03:30:57;96112.56;;;-0.42;70.68
9525;BME280;15940;48.734;9.112;2023-03-12T03:33:27;96109.47;;;-0.41;71.11
9525;BME280;15940;48.734;9.112;2023-03-12T03:35:56;96115.66;;;-0.31;70.46
9525;BME280;15940;48.734;9.112;2023-03-12T03:38:30;96116.63;;;-0.25;70.47
9525;BME280;15940;48.734;9.112;2023-03-12T03:40:57;96122.25;;;-0.36;70.30
9525;BME280;15940;48.734;9.112;2023-03-12T03:43:24;96108.09;;;-0.33;70.87
9525;BME280;15940;48.734;9.112;2023-03-12T03:45:56;96109.06;;;-0.26;72.68
9525;BME280;15940;48.734;9.112;2023-03-12T03:48:23;96108.09;;;-0.33;71.27
9525;BME280;15940;48.734;9.112;2023-03-12T03:50:51;96114.78;;;-0.41;71.26
9525;BME280;15940;48.734;9.112;2023-03-12T03:53:19;96119.38;;;-0.16;71.30
9525;BME280;15940;48.734;9.112;2023-03-12T03:55:46;96116.69;;;-0.29;70.84
9525;BME280;15940;48.734;9.112;2023-03-12T03:58:13;96121.50;;;-0.11;71.95
9525;BME280;15940;48.734;9.112;2023-03-12T04:00:43;96113.31;;;-0.16;70.55
9525;BME280;15940;48.734;9.112;2023-03-12T04:03:10;96115.34;;;-0.08;72.81
9525;BME280;15940;48.734;9.112;2023-03-12T04:05:38;96107.56;;;-0.02;70.60
9525;BME280;15940;48.734;9.112;2023-03-12T04:08:09;96102.97;;;0.24;71.77
9525;BME280;15940;48.734;9.112;2023-03-12T04:10:38;96100.25;;;0.49;71.46
9525;BME280;15940;48.734;9.112;2023-03-12T04:13:05;96099.69;;;0.54;69.61
9525;BME280;15940;48.734;9.112;2023-03-12T04:15:32;96100.50;;;0.64;69.88
9525;BME280;15940;48.734;9.112;2023-03-12T04:17:59;96101.03;;;0.72;68.93
9525;BME280;15940;48.734;9.112;2023-03-12T04:20:26;96101.66;;;0.76;68.92
9525;BME280;15940;48.734;9.112;2023-03-12T04:22:53;96109.88;;;0.69;70.29
9525;BME280;15940;48.734;9.112;2023-03-12T04:25:20;96107.00;;;0.76;69.59
9525;BME280;15940;48.734;9.112;2023-03-12T04:27:48;96102.78;;;0.53;69.17
9525;BME280;15940;48.734;9.112;2023-03-12T04:30:15;96103.34;;;0.35;70.21
9525;BME280;15940;48.734;9.112;2023-03-12T04:32:42;96098.69;;;0.26;70.61
9525;BME280;15940;48.734;9.112;2023-03-12T04:35:09;96102.97;;;0.24;71.00
9525;BME280;15940;48.734;9.112;2023-03-12T04:37:36;96105.94;;;0.26;70.58
9525;BME280;15940;48.734;9.112;2023-03-12T04:40:04;96109.13;;;0.34;71.33
9525;BME280;15940;48.734;9.112;2023-03-12T04:42:33;96104.78;;;0.62;72.04
9525;BME280;15940;48.734;9.112;2023-03-12T04:45:02;96109.03;;;0.72;71.26
9525;BME280;15940;48.734;9.112;2023-03-12T04:47:30;96098.31;;;0.84;70.88
9525;BME280;15940;48.734;9.112;2023-03-12T04:49:57;96106.50;;;0.90;70.95
9525;BME280;15940;48.734;9.112;2023-03-12T04:52:24;96106.19;;;1.10;71.15
9525;BME280;15940;48.734;9.112;2023-03-12T04:54:51;96109.53;;;1.01;70.42
9525;BME280;15940;48.734;9.112;2023-03-12T04:57:18;96112.13;;;0.92;70.35
9525;BME280;15940;48.734;9.112;2023-03-12T04:59:45;96110.59;;;1.04;70.32
9525;BME280;15940;48.734;9.112;2023-03-12T05:02:14;96109.53;;;1.01;70.79
9525;BME280;15940;48.734;9.112;2023-03-12T05:04:40;96113.03;;;1.11;70.67
9525;BME280;15940;48.734;9.112;2023-03-12T05:07:07;96108.13;;;1.09;72.14
9525;BME280;15940;48.734;9.112;2023-03-12T05:09:34;96107.00;;;1.20;71.33
9525;BME280;15940;48.734;9.112;2023-03-12T05:12:01;96097.81;;;1.21;70.76
9525;BME280;15940;48.734;9.112;2023-03-12T05:14:28;96098.41;;;1.16;71.53
9525;BME280;15940;48.734;9.112;2023-03-12T05:16:55;96091.88;;;1.17;71.47
9525;BME280;15940;48.734;9.112;2023-03-12T05:19:23;96093.91;;;1.12;71.45
9525;BME280;15940;48.734;9.112;2023-03-12T05:21:50;96097.31;;;1.13;71.96
9525;BME280;15940;48.734;9.112;2023-03-12T05:24:17;96101.22;;;1.21;71.91
9525;BME280;15940;48.734;9.112;2023-03-12T05:26:46;96098.50;;;1.12;72.73
9525;BME280;15940;48.734;9.112;2023-03-12T05:29:13;96097.00;;;1.11;73.50
9525;BME280;15940;48.734;9.112;2023-03-12T05:31:40;96091.91;;;1.04;74.29
9525;BME280;15940;48.734;9.112;2023-03-12T05:34:09;96097.81;;;0.99;75.52
9525;BME280;15940;48.734;9.112;2023-03-12T05:36:38;96108.13;;;1.09;76.50
9525;BME280;15940;48.734;9.112;2023-03-12T05:39:05;96105.66;;;1.15;76.55
9525;BME280;15940;48.734;9.112;2023-03-12T05:41:31;96105.81;;;1.21;76.93
9525;BME280;15940;48.734;9.112;2023-03-12T05:43:59;96104.41;;;1.07;77.42
9525;BME280;15940;48.734;9.112;2023-03-12T05:46:26;96103.16;;;0.99;77.88
9525;BME280;15940;48.734;9.112;2023-03-12T05:48:53;96102.03;;;1.09;78.62
9525;BME280;15940;48.734;9.112;2023-03-12T05:51:20;96109.59;;;1.10;78.67
9525;BME280;15940;48.734;9.112;2023-03-12T05:53:49;96113.97;;;1.17;78.78
9525;BME280;15940;48.734;9.112;2023-03-12T05:56:16;96114.13;;;1.23;78.13
9525;BME280;15940;48.734;9.112;2023-03-12T05:58:46;96117.91;;;1.12;78.45
9525;BME280;15940;48.734;9.112;2023-03-12T06:01:16;96118.28;;;1.02;78.53
9525;BME280;15940;48.734;9.112;2023-03-12T06:03:43;96117.06;;;1.16;78.50
9525;BME280;15940;48.734;9.112;2023-03-12T06:06:13;96120.47;;;1.16;79.24
9525;BME280;15940;48.734;9.112;2023-03-12T06:08:41;96123.19;;;1.25;80.27
9525;BME280;15940;48.734;9.112;2023-03-12T06:11:10;96117.59;;;1.32;79.46
9525;BME280;15940;48.734;9.112;2023-03-12T06:13:37;96115.09;;;1.60;78.96
9525;BME280;15940;48.734;9.112;2023-03-12T06:16:07;96121.22;;;1.69;78.51
9525;BME280;15940;48.734;9.112;2023-03-12T06:18:35;96121.28;;;1.88;77.75
9525;BME280;15940;48.734;9.112;2023-03-12T06:21:10;96111.25;;;1.92;76.38
9525;BME280;15940;48.734;9.112;2023-03-12T06:23:38;96117.22;;;2.05;76.96
9525;BME280;15940;48.734;9.112;2023-03-12T06:26:06;96111.44;;;2.07;76.97
9525;BME280;15940;48.734;9.112;2023-03-12T06:28:35;96102.81;;;2.03;75.59
9525;BME280;15940;48.734;9.112;2023-03-12T06:31:03;96104.81;;;1.80;77.23
9525;BME280;15940;48.734;9.112;2023-03-12T06:33:31;96107.50;;;1.80;77.59
9525;BME280;15940;48.734;9.112;2023-03-12T06:36:01;96105.88;;;1.83;76.73
9525;BME280;15940;48.734;9.112;2023-03-12T06:38:29;96110.50;;;1.60;77.89
9525;BME280;15940;48.734;9.112;2023-03-12T06:40:58;96108.84;;;1.54;78.50
9525;BME280;15940;48.734;9.112;2023-03-12T06:43:27;96103.22;;;1.61;79.94
9525;BME280;15940;48.734;9.112;2023-03-12T06:45:58;96109.69;;;1.51;78.83
9525;BME280;15940;48.734;9.112;2023-03-12T06:48:27;96104.63;;;1.43;79.06
9525;BME280;15940;48.734;9.112;2023-03-12T06:50:55;96098.88;;;1.23;79.90
9525;BME280;15940;48.734;9.112;2023-03-12T06:53:22;96103.16;;;1.21;80.39
9525;BME280;15940;48.734;9.112;2023-03-12T06:55:50;96102.78;;;1.09;81.81
9525;BME280;15940;48.734;9.112;2023-03-12T06:58:18;96109.38;;;0.96;81.86
9525;BME280;15940;48.734;9.112;2023-03-12T07:00:45;96108.88;;;0.75;82.13
9525;BME280;15940;48.734;9.112;2023-03-12T07:03:13;96107.41;;;0.74;82.71
9525;BME280;15940;48.734;9.112;2023-03-12T07:05:43;96106.44;;;0.81;83.33
9525;BME280;15940;48.734;9.112;2023-03-12T07:08:11;96106.22;;;0.75;83.47
9525;BME280;15940;48.734;9.112;2023-03-12T07:10:38;96101.47;;;0.70;84.39
9525;BME280;15940;48.734;9.112;2023-03-12T07:13:06;96105.91;;;0.73;86.40
9525;BME280;15940;48.734;9.112;2023-03-12T07:15:33;96114.13;;;0.79;86.01
9525;BME280;15940;48.734;9.112;2023-03-12T07:18:02;96115.53;;;0.93;86.12
9525;BME280;15940;48.734;9.112;2023-03-12T07:20:31;96122.50;;;0.90;86.81
9525;BME280;15940;48.734;9.112;2023-03-12T07:22:58;96117.59;;;0.89;86.23
9525;BME280;15940;48.734;9.112;2023-03-12T07:25:25;96122.25;;;0.97;86.34
9525;BME280;15940;48.734;9.112;2023-03-12T07:27:52;96120.66;;;1.00;86.04
9525;BME280;15940;48.734;9.112;2023-03-12T07:30:19;96119.97;;;1.08;87.03
9525;BME280;15940;48.734;9.112;2023-03-12T07:32:46;96117.81;;;1.16;86.77
9525;BME280;15940;48.734;9.112;2023-03-12T07:35:13;96123.19;;;1.25;86.50
9525;BME280;15940;48.734;9.112;2023-03-12T07:37:41;96113.28;;;1.26;86.81
9525;BME280;15940;48.734;9.112;2023-03-12T07:40:10;96117.00;;;1.28;86.28
9525;BME280;15940;48.734;9.112;2023-03-12T07:42:37;96114.63;;;1.30;87.04
9525;BME280;15940;48.734;9.112;2023-03-12T07:45:06;96116.06;;;1.44;86.46
9525;BME280;15940;48.734;9.112;2023-03-12T07:47:33;96118.03;;;1.53;85.64
9525;BME280;15940;48.734;9.112;2023-03-12T07:50:00;96112.38;;;1.51;85.29
9525;BME280;15940;48.734;9.112;2023-03-12T07:52:27;96107.31;;;1.75;86.43
9525;BME280;15940;48.734;9.112;2023-03-12T07:54:56;96108.38;;;1.86;84.81
9525;BME280;15940;48.734;9.112;2023-03-12T07:57:23;96106.53;;;2.05;84.52
9525;BME280;15940;48.734;9.112;2023-03-12T07:59:50;96107.75;;;2.13;83.35
9525;BME280;15940;48.734;9.112;2023-03-12T08:02:17;96112.38;;;2.22;82.79
9525;BME280;15940;48.734;9.112;2023-03-12T08:04:45;96118.38;;;2.63;83.75
9525;BME280;15940;48.734;9.112;2023-03-12T08:07:12;96115.44;;;2.97;81.63
9525;BME280;15940;48.734;9.112;2023-03-12T08:09:39;96115.13;;;3.23;80.19
9525;BME280;15940;48.734;9.112;2023-03-12T08:12:08;96109.31;;;3.33;79.89
9525;BME280;15940;48.734;9.112;2023-03-12T08:14:35;96114.50;;;3.37;79.99
9525;BME280;15940;48.734;9.112;2023-03-12T08:17:02;96113.47;;;3.34;79.58
9525;BME280;15940;48.734;9.112;2023-03-12T08:19:29;96110.06;;;3.34;79.19
9525;BME280;15940;48.734;9.112;2023-03-12T08:21:56;96114.41;;;3.13;78.25
9525;BME280;15940;48.734;9.112;2023-03-12T08:24:23;96120.19;;;2.93;79.11
9525;BME280;15940;48.734;9.112;2023-03-12T08:26:50;96121.81;;;2.81;80.48
9525;BME280;15940;48.734;9.112;2023-03-12T08:29:18;96121.09;;;2.99;80.88
9525;BME280;15940;48.734;9.112;2023-03-12T08:31:45;96118.69;;;3.01;81.59
9525;BME280;15940;48.734;9.112;2023-03-12T08:34:12;96112.31;;;3.08;81.59
9525;BME280;15940;48.734;9.112;2023-03-12T08:36:39;96124.50;;;3.09;81.75
9525;BME280;15940;48.734;9.112;2023-03-12T08:39:06;96133.25;;;3.09;82.37
9525;BME280;15940;48.734;9.112;2023-03-12T08:41:33;96130.59;;;3.19;83.38
9525;BME280;15940;48.734;9.112;2023-03-12T08:44:00;96125.06;;;3.31;83.50
9525;BME280;15940;48.734;9.112;2023-03-12T08:46:28;96132.16;;;3.62;82.99
9525;BME280;15940;48.734;9.112;2023-03-12T08:48:55;96131.97;;;3.75;82.87
9525;BME280;15940;48.734;9.112;2023-03-12T08:51:22;96131.78;;;3.87;83.11
9525;BME280;15940;48.734;9.112;2023-03-12T08:53:49;96129.09;;;3.87;82.64
9525;BME280;15940;48.734;9.112;2023-03-12T08:56:16;96126.41;;;3.87;83.14
9525;BME280;15940;48.734;9.112;2023-03-12T08:58:43;96126.41;;;3.87;84.13
9525;BME280;15940;48.734;9.112;2023-03-12T09:01:12;96129.25;;;3.93;84.42
9525;BME280;15940;48.734;9.112;2023-03-12T09:03:40;96122.63;;;4.12;84.48
9525;BME280;15940;48.734;9.112;2023-03-12T09:06:10;96119.97;;;4.36;84.84
9525;BME280;15940;48.734;9.112;2023-03-12T09:08:38;96128.25;;;4.71;83.98
9525;BME280;15940;48.734;9.112;2023-03-12T09:11:07;96129.63;;;5.05;83.47
9525;BME280;15940;48.734;9.112;2023-03-12T09:13:34;96135.41;;;5.13;84.47
9525;BME280;15940;48.734;9.112;2023-03-12T09:16:02;96128.47;;;5.21;83.29
9525;BME280;15940;48.734;9.112;2023-03-12T09:18:30;96132.66;;;5.37;83.63
9525;BME280;15940;48.734;9.112;2023-03-12T09:20:59;96130.53;;;5.41;83.12
9525;BME280;15940;48.734;9.112;2023-03-12T09:23:27;96135.34;;;5.66;83.40
9525;BME280;15940;48.734;9.112;2023-03-12T09:25:54;96132.13;;;6.07;83.73
9525;BME280;15940;48.734;9.112;2023-03-12T09:28:22;96130.25;;;6.48;81.54
9525;BME280;15940;48.734;9.112;2023-03-12T09:30:49;96142.31;;;6.73;81.05
9525;BME280;15940;48.734;9.112;2023-03-12T09:33:16;96144.13;;;6.81;80.91
9525;BME280;15940;48.734;9.112;2023-03-12T09:35:43;96143.97;;;6.91;79.80
9525;BME280;15940;48.734;9.112;2023-03-12T09:38:14;96139.00;;;7.04;79.41
9525;BME280;15940;48.734;9.112;2023-03-12T09:40:45;96146.63;;;7.05;79.49
9525;BME280;15940;48.734;9.112;2023-03-12T09:43:21;96149.97;;;7.21;80.13
9525;BME280;15940;48.734;9.112;2023-03-12T09:45:52;96153.16;;;7.45;79.03
9525;BME280;15940;48.734;9.112;2023-03-12T09:48:30;96155.91;;;7.51;80.13
9525;BME280;15940;48.734;9.112;2023-03-12T09:51:01;96152.25;;;7.54;79.57
9525;BME280;15940;48.734;9.112;2023-03-12T09:53:34;96153.00;;;7.54;79.35
9525;BME280;15940;48.734;9.112;2023-03-12T09:56:13;96149.84;;;7.30;79.20
9525;BME280;15940;48.734;9.112;2023-03-12T09:58:42;96157.06;;;7.44;80.29
9525;BME280;15940;48.734;9.112;2023-03-12T10:01:41;96157.75;;;7.39;80.95
9525;BME280;15940;48.734;9.112;2023-03-12T10:04:27;96162.19;;;7.42;81.32
9525;BME280;15940;48.734;9.112;2023-03-12T10:07:04;96168.94;;;7.58;81.08
9525;BME280;15940;48.734;9.112;2023-03-12T10:09:57;96164.69;;;7.71;79.55
9525;BME280;15940;48.734;9.112;2023-03-12T10:12:37;96167.38;;;7.97;81.34
9525;BME280;15940;48.734;9.112;2023-03-12T10:15:16;96174.25;;;7.98;80.85
9525;BME280;15940;48.734;9.112;2023-03-12T10:17:59;96174.44;;;7.95;82.06
9525;BME280;15940;48.734;9.112;2023-03-12T10:20:58;96179.38;;;8.34;79.60
9525;BME280;15940;48.734;9.112;2023-03-12T10:23:40;96171.19;;;8.17;80.59
9525;BME280;15940;48.734;9.112;2023-03-12T10:26:15;96171.69;;;8.21;80.49
9525;BME280;15940;48.734;9.112;2023-03-12T10:28:48;96177.91;;;8.32;80.29
9525;BME280;15940;48.734;9.112;2023-03-12T10:31:21;96178.22;;;8.72;81.79
9525;BME280;15940;48.734;9.112;2023-03-12T10:33:55;96175.47;;;9.26;80.55
9525;BME280;15940;48.734;9.112;2023-03-12T10:36:25;96174.34;;;9.60;77.44
9525;BME280;15940;48.734;9.112;2023-03-12T10:38:54;96178.44;;;9.28;76.96
9525;BME280;15940;48.734;9.112;2023-03-12T10:41:24;96192.59;;;9.00;78.07
9525;BME280;15940;48.734;9.112;2023-03-12T10:43:52;96201.00;;;8.71;78.86
9525;BME280;15940;48.734;9.112;2023-03-12T10:47:09;96199.59;;;8.38;80.18
9525;BME280;15940;48.734;9.112;2023-03-12T10:49:41;96210.94;;;8.22;81.36
9525;BME280;15940;48.734;9.112;2023-03-12T10:52:16;96208.78;;;8.26;82.65
9525;BME280;15940;48.734;9.112;2023-03-12T10:54:46;96209.22;;;8.45;83.12
9525;BME280;15940;48.734;9.112;2023-03-12T10:57:15;96219.91;;;8.71;81.57
9525;BME280;15940;48.734;9.112;2023-03-12T10:59:45;96215.78;;;9.24;81.99
9525;BME280;15940;48.734;9.112;2023-03-12T11:02:32;96214.53;;;10.29;77.19
9525;BME280;15940;48.734;9.112;2023-03-12T11:05:01;96213.44;;;11.10;75.80
9525;BME280;15940;48.734;9.112;2023-03-12T11:07:35;96213.41;;;11.16;73.52
9525;BME280;15940;48.734;9.112;2023-03-12T11:10:15;96215.50;;;11.45;73.51
9525;BME280;15940;48.734;9.112;2023-03-12T11:12:59;96221.56;;;11.68;73.05
9525;BME280;15940;48.734;9.112;2023-03-12T11:15:30;96219.59;;;11.05;73.22
9525;BME280;15940;48.734;9.112;2023-03-12T11:18:29;96224.59;;;10.84;72.83
9525;BME280;15940;48.734;9.112;2023-03-12T11:21:14;96233.72;;;10.59;74.50
9525;BME280;15940;48.734;9.112;2023-03-12T11:23:44;96231.78;;;10.43;75.86
9525;BME280;15940;48.734;9.112;2023-03-12T11:26:17;96228.06;;;10.29;74.88
9525;BME280;15940;48.734;9.112;2023-03-12T11:28:49;96227.84;;;10.38;78.75
9525;BME280;15940;48.734;9.112;2023-03-12T11:31:22;96225.38;;;10.35;78.75
9525;BME280;15940;48.734;9.112;2023-03-12T11:33:53;96231.75;;;10.32;76.41
9525;BME280;15940;48.734;9.112;2023-03-12T11:36:38;96230.28;;;10.36;76.53
9525;BME280;15940;48.734;9.112;2023-03-12T11:39:20;96220.44;;;10.39;76.57
9525;BME280;15940;48.734;9.112;2023-03-12T11:42:07;96224.84;;;10.75;75.55
9525;BME280;15940;48.734;9.112;2023-03-12T11:44:44;96215.97;;;10.69;75.07
9525;BME280;15940;48.734;9.112;2023-03-12T11:47:39;96218.69;;;10.75;75.28
9525;BME280;15940;48.734;9.112;2023-03-12T11:50:20;96226.84;;;10.58;75.49
9525;BME280;15940;48.734;9.112;2023-03-12T11:53:18;96226.59;;;10.62;75.35
9525;BME280;15940;48.734;9.112;2023-03-12T11:56:14;96222.13;;;10.75;74.86
9525;BME280;15940;48.734;9.112;2023-03-12T11:58:54;96222.16;;;10.47;74.58
9525;BME280;15940;48.734;9.112;2023-03-12T12:01:36;96222.63;;;10.51;75.24
9525;BME280;15940;48.734;9.112;2023-03-12T12:04:43;96226.34;;;10.59;74.38
9525;BME280;15940;48.734;9.112;2023-03-12T12:07:25;96211.56;;;10.61;75.71
9525;BME280;15940;48.734;9.112;2023-03-12T12:10:02;96213.28;;;10.80;75.15
9525;BME280;15940;48.734;9.112;2023-03-12T12:12:50;96202.97;;;11.37;74.47
9525;BME280;15940;48.734;9.112;2023-03-12T12:15:31;96204.31;;;12.43;71.35
9525;BME280;15940;48.734;9.112;2023-03-12T12:18:16;96195.69;;;12.39;69.51
9525;BME280;15940;48.734;9.112;2023-03-12T12:20:53;96204.50;;;12.99;69.34
9525;BME280;15940;48.734;9.112;2023-03-12T12:23:30;96194.94;;;13.36;67.88
9525;BME280;15940;48.734;9.112;2023-03-12T12:26:08;96190.72;;;13.40;64.42
9525;BME280;15940;48.734;9.112;2023-03-12T12:29:19;96184.59;;;13.53;63.79
9525;BME280;15940;48.734;9.112;2023-03-12T12:31:53;96189.94;;;13.21;63.82
9525;BME280;15940;48.734;9.112;2023-03-12T12:34:49;96178.19;;;13.07;65.04
9525;BME280;15940;48.734;9.112;2023-03-12T12:37:28;96189.84;;;12.83;64.07
9525;BME280;15940;48.734;9.112;2023-03-12T12:40:08;96176.47;;;12.85;64.65
9525;BME280;15940;48.734;9.112;2023-03-12T12:43:10;96163.38;;;12.59;64.20
9525;BME280;15940;48.734;9.112;2023-03-12T12:45:41;96166.41;;;12.80;63.33
9525;BME280;15940;48.734;9.112;2023-03-12T12:48:16;96177.09;;;12.73;64.41
9525;BME280;15940;48.734;9.112;2023-03-12T12:50:47;96172.44;;;12.43;64.34
9525;BME280;15940;48.734;9.112;2023-03-12T12:53:21;96178.56;;;12.19;64.64
9525;BME280;15940;48.734;9.112;2023-03-12T12:56:00;96164.75;;;11.87;65.82
9525;BME280;15940;48.734;9.112;2023-03-12T12:58:44;96176.19;;;11.69;66.35
9525;BME280;15940;48.734;9.112;2023-03-12T13:01:14;96177.53;;;11.45;66.82
9525;BME280;15940;48.734;9.112;2023-03-12T13:03:42;96170.31;;;11.12;67.93
9525;BME280;15940;48.734;9.112;2023-03-12T13:06:11;96177.50;;;10.93;69.30
9525;BME280;15940;48.734;9.112;2023-03-12T13:09:12;96179.53;;;10.70;70.24
9525;BME280;15940;48.734;9.112;2023-03-12T13:11:44;96179.09;;;10.38;71.34
9525;BME280;15940;48.734;9.112;2023-03-12T13:14:34;96187.69;;;10.09;74.56
9525;BME280;15940;48.734;9.112;2023-03-12T13:17:27;96194.81;;;9.95;76.76
9525;BME280;15940;48.734;9.112;2023-03-12T13:20:11;96193.09;;;9.97;78.18
9525;BME280;15940;48.734;9.112;2023-03-12T13:23:08;96188.66;;;10.11;75.13
9525;BME280;15940;48.734;9.112;2023-03-12T13:25:50;96196.81;;;10.22;75.15
9525;BME280;15940;48.734;9.112;2023-03-12T13:28:37;96188.94;;;10.30;74.38
9525;BME280;15940;48.734;9.112;2023-03-12T13:31:40;96189.91;;;10.55;73.80
9525;BME280;15940;48.734;9.112;2023-03-12T13:40:54;96187.00;;;10.25;72.62
9525;BME280;15940;48.734;9.112;2023-03-12T13:43:52;96197.28;;;10.10;72.83
9525;BME280;15940;48.734;9.112;2023-03-12T13:46:40;96194.56;;;9.98;74.15
9525;BME280;15940;48.734;9.112;2023-03-12T13:49:16;96183.28;;;10.17;74.23